createdAt,value
2018-05-02T00:01:47.922Z,25.13
2018-05-02T00:07:48.617Z,22.34
2018-05-02T00:13:49.277Z,11.24
2018-05-02T00:17:49.994Z,10.13
2018-05-02T00:23:50.731Z,8.6
2018-05-02T00:27:51.420Z,8.08
2018-05-02T00:29:52.017Z,7.54
2018-05-02T00:33:52.760Z,8.09
2018-05-02T00:39:53.434Z,9.01
2018-05-02T00:43:54.099Z,7.24
2018-05-02T00:49:54.727Z,7.17
2018-05-02T00:53:55.433Z,7.12
2018-05-02T00:55:56.067Z,6.44
2018-05-02T00:59:56.750Z,7.23
2018-05-02T01:05:57.483Z,6.46
2018-05-02T01:09:58.189Z,4.79
2018-05-02T01:15:58.964Z,5.78
2018-05-02T01:19:59.708Z,4.91
2018-05-02T01:22:00.362Z,4.45
2018-05-02T01:26:01.043Z,4.98
2018-05-02T01:32:01.730Z,6.59
2018-05-02T01:36:02.466Z,4.89
2018-05-02T01:42:03.165Z,5.95
2018-05-02T01:46:03.823Z,7.28
2018-05-02T01:48:04.501Z,6.7
2018-05-02T01:52:05.176Z,5.99
2018-05-02T01:58:05.863Z,7.23
2018-05-02T02:02:06.469Z,6.08
2018-05-02T02:08:07.197Z,6.1
2018-05-02T02:12:07.830Z,6.57
2018-05-02T02:14:08.467Z,6.56
2018-05-02T02:18:09.207Z,6.69
2018-05-02T02:24:09.833Z,6.88
2018-05-02T02:28:10.616Z,7.87
2018-05-02T02:34:11.391Z,7.88
2018-05-02T02:34:11.400Z,7.88
2018-05-02T02:38:12.048Z,7.99
2018-05-02T02:40:12.694Z,3.87
2018-05-02T02:44:13.374Z,5
2018-05-02T02:50:14.126Z,6.07
2018-05-02T02:54:14.754Z,5.24
2018-05-02T03:00:15.772Z,6.47
2018-05-02T03:04:16.518Z,4.68
2018-05-02T03:06:17.168Z,7.53
2018-05-02T03:10:17.849Z,6.64
2018-05-02T03:16:18.580Z,6.85
2018-05-02T03:20:19.283Z,4.5
2018-05-02T03:26:20.036Z,4.22
2018-05-02T03:30:21.116Z,5.42
2018-05-02T03:32:21.781Z,4.08
2018-05-02T03:36:22.434Z,5.57
2018-05-02T03:42:23.126Z,5.11
2018-05-02T03:46:23.810Z,4.8
2018-05-02T03:52:24.492Z,7.18
2018-05-02T03:56:25.216Z,5.11
2018-05-02T03:58:26.103Z,4.52
2018-05-02T04:02:26.801Z,4.79
2018-05-02T04:08:27.503Z,4.83
2018-05-02T04:12:28.145Z,5.15
2018-05-02T04:18:28.883Z,6.22
2018-05-02T04:22:29.606Z,6.37
2018-05-02T04:24:30.268Z,7.07
2018-05-02T04:28:30.941Z,6
2018-05-02T04:34:31.588Z,5.79
2018-05-02T04:38:32.288Z,5.13
2018-05-02T04:44:33.138Z,5.66
2018-05-02T04:48:33.925Z,4.83
2018-05-02T04:50:34.511Z,6.07
2018-05-02T04:54:35.269Z,5.19
2018-05-02T05:00:36.125Z,5.66
2018-05-02T05:04:36.889Z,5.27
2018-05-02T05:10:37.582Z,5.41
2018-05-02T05:14:38.339Z,6.98
2018-05-02T05:16:38.978Z,5.45
2018-05-02T05:20:39.667Z,6.34
2018-05-02T05:26:40.408Z,5.99
2018-05-02T05:30:41.083Z,5.68
2018-05-02T05:36:41.869Z,6.55
2018-05-02T05:40:42.645Z,7.16
2018-05-02T05:42:43.258Z,6.91
2018-05-02T05:46:44.034Z,5.71
2018-05-02T05:52:44.708Z,5.3
2018-05-02T05:56:45.419Z,6.21
2018-05-02T06:02:46.108Z,1.04
2018-05-02T06:08:46.893Z,1.59
2018-05-02T06:12:47.746Z,1.75
2018-05-02T06:18:48.411Z,4.23
2018-05-02T06:22:49.026Z,3.15
2018-05-02T06:28:49.829Z,3.34
2018-05-02T06:34:50.633Z,4.94
2018-05-02T06:38:51.299Z,3.56
2018-05-02T06:44:52.003Z,3.94
2018-05-02T06:48:52.730Z,4.65
2018-05-02T06:54:53.510Z,3.67
2018-05-02T07:00:54.394Z,3.18
2018-05-02T07:04:55.042Z,2.22
2018-05-02T07:10:55.863Z,1.85
2018-05-02T07:14:56.516Z,1.53
2018-05-02T07:20:57.287Z,3.83
2018-05-02T07:26:58.102Z,2.39
2018-05-02T07:30:58.851Z,3.21
2018-05-02T07:36:59.568Z,1.99
2018-05-02T07:41:00.279Z,3.62
2018-05-02T07:47:01.061Z,1.66
2018-05-02T07:53:01.812Z,4.02
2018-05-02T07:57:02.511Z,3.6
2018-05-02T08:03:03.180Z,3.06
2018-05-02T08:07:04.201Z,3.1
2018-05-02T08:13:04.942Z,6.33
2018-05-02T08:19:05.638Z,6.01
2018-05-02T08:23:06.308Z,4.39
2018-05-02T08:29:07.005Z,6.43
2018-05-02T08:33:07.872Z,5.18
2018-05-02T08:39:08.547Z,7.56
2018-05-02T08:45:09.645Z,5.61
2018-05-02T08:49:10.290Z,5.61
2018-05-02T08:55:10.967Z,6.02
2018-05-02T08:59:11.729Z,4.29
2018-05-02T09:05:12.507Z,6.23
2018-05-02T09:11:13.238Z,5.53
2018-05-02T09:15:14.353Z,5.48
2018-05-02T09:21:15.050Z,7.19
2018-05-02T09:25:15.843Z,5.3
2018-05-02T09:27:16.369Z,7.28
2018-05-02T09:31:17.040Z,3.77
2018-05-02T09:37:17.789Z,5.26
2018-05-02T09:41:18.601Z,6.39
2018-05-02T09:47:19.174Z,4.63
2018-05-02T09:51:19.809Z,4.16
2018-05-02T09:53:20.337Z,5.53
2018-05-02T09:57:21.048Z,6.33
2018-05-02T10:03:21.738Z,5.92
2018-05-02T10:07:22.516Z,4.78
2018-05-02T10:13:23.226Z,7.47
2018-05-02T10:17:23.993Z,9.94
2018-05-02T10:19:24.633Z,7.65
2018-05-02T10:23:25.352Z,8.09
2018-05-02T10:29:26.236Z,7.47
2018-05-02T10:33:27.017Z,6.47
2018-05-02T10:39:27.769Z,7.89
2018-05-02T10:43:28.507Z,7.28
2018-05-02T10:45:29.416Z,6.38
2018-05-02T10:49:30.110Z,5.87
2018-05-02T10:55:30.881Z,7.01
2018-05-02T10:59:31.703Z,5.63
2018-05-02T11:05:32.505Z,6.9
2018-05-02T11:09:33.246Z,4.78
2018-05-02T11:11:33.917Z,6.93
2018-05-02T11:15:34.999Z,7.23
2018-05-02T11:21:35.736Z,7.92
2018-05-02T11:25:36.485Z,5.28
2018-05-02T11:31:37.166Z,6.44
2018-05-02T11:35:37.914Z,7.32
2018-05-02T11:37:38.525Z,7.66
2018-05-02T11:41:39.258Z,7.77
2018-05-02T11:47:40.052Z,8.22
2018-05-02T11:51:40.699Z,9.36
2018-05-02T11:57:41.517Z,8.77
2018-05-02T12:01:42.243Z,8.89
2018-05-02T12:03:42.831Z,8.86
2018-05-02T12:07:43.585Z,7.26
2018-05-02T12:13:44.224Z,8.5
2018-05-02T12:17:45.302Z,7.01
2018-05-02T12:23:47.927Z,7.9
2018-05-02T12:27:50.382Z,8.24
2018-05-02T12:29:50.994Z,9.28
2018-05-02T12:33:54.718Z,7.15
2018-05-02T12:39:55.595Z,8.9
2018-05-02T12:43:56.342Z,7.59
2018-05-02T12:49:57.000Z,9.25
2018-05-02T12:53:57.650Z,8.92
2018-05-02T12:55:59.076Z,9.03
2018-05-02T12:59:59.608Z,6.54
2018-05-02T13:06:00.304Z,8.13
2018-05-02T13:10:00.966Z,7.81
2018-05-02T13:16:01.701Z,8.84
2018-05-02T13:20:02.450Z,8.51
2018-05-02T13:22:03.112Z,8.9
2018-05-02T13:26:03.761Z,12
2018-05-02T13:32:04.466Z,8.51
2018-05-02T13:36:05.267Z,7.03
2018-05-02T13:42:05.964Z,8.75
2018-05-02T13:46:06.774Z,8.69
2018-05-02T13:48:07.465Z,10.31
2018-05-02T13:52:08.266Z,7.79
2018-05-02T13:58:09.008Z,8.5
2018-05-02T14:02:09.658Z,6.78
2018-05-02T14:08:10.414Z,10.9
2018-05-02T14:12:11.106Z,9.83
2018-05-02T14:14:11.764Z,7.56
2018-05-02T14:18:12.517Z,6.97
2018-05-02T14:24:13.350Z,9.95
2018-05-02T14:28:14.047Z,11.04
2018-05-02T14:34:14.727Z,9.54
2018-05-02T14:38:15.480Z,9
2018-05-02T14:40:16.021Z,9.71
2018-05-02T14:44:16.705Z,7.48
2018-05-02T14:50:17.492Z,10.74
2018-05-02T14:54:18.149Z,9.16
2018-05-02T15:00:19.239Z,9.08
2018-05-02T15:04:19.915Z,9.41
2018-05-02T15:06:20.569Z,10.73
2018-05-02T15:10:21.222Z,8.42
2018-05-02T15:16:21.970Z,7.66
2018-05-02T15:20:22.654Z,11.55
2018-05-02T15:26:23.306Z,9.81
2018-05-02T15:30:24.346Z,9.93
2018-05-02T15:32:25.453Z,8.95
2018-05-02T15:36:26.145Z,6.5
2018-05-02T15:42:26.816Z,9.19
2018-05-02T15:46:27.519Z,9.48
2018-05-02T15:52:28.252Z,10.58
2018-05-02T15:58:29.217Z,10.7
2018-05-02T16:02:29.806Z,13.23
2018-05-02T16:08:30.425Z,14.72
2018-05-02T16:12:31.218Z,9.4
2018-05-02T16:18:33.102Z,9
2018-05-02T16:24:33.835Z,12.13
2018-05-02T16:28:34.554Z,11.11
2018-05-02T16:34:35.175Z,10.04
2018-05-02T16:38:35.901Z,11.14
2018-05-02T16:44:36.745Z,13.69
2018-05-02T16:50:37.794Z,11.41
2018-05-02T16:54:38.449Z,13.98
2018-05-02T17:00:39.341Z,14.42
2018-05-02T17:04:40.318Z,11.66
2018-05-02T17:10:40.943Z,10.13
2018-05-02T17:16:41.719Z,11.63
2018-05-02T17:20:42.322Z,9.63
2018-05-02T17:26:43.103Z,10.55
2018-05-02T17:30:43.946Z,9.8
2018-05-02T17:36:44.781Z,10.04
2018-05-02T17:42:45.466Z,8.98
2018-05-02T17:46:46.477Z,8.9
2018-05-02T17:52:47.411Z,11.3
2018-05-02T17:56:48.024Z,11.3
2018-05-02T18:02:48.780Z,10.61
2018-05-02T18:08:49.562Z,12.91
2018-05-02T18:12:50.280Z,9.84
2018-05-02T18:18:50.996Z,11.27
2018-05-02T18:22:51.771Z,9.52
2018-05-02T18:28:52.352Z,9.85
2018-05-02T18:34:53.081Z,10.77
2018-05-02T18:38:53.796Z,11.59
2018-05-02T18:44:54.620Z,13.91
2018-05-02T18:48:55.835Z,11.85
2018-05-02T18:54:56.525Z,10.61
2018-05-02T19:00:59.255Z,12.62
2018-05-02T19:05:00.353Z,10.56
2018-05-02T19:11:01.126Z,10.76
2018-05-02T19:15:03.417Z,11.03
2018-05-02T19:21:04.452Z,11.43
2018-05-02T19:27:05.516Z,13.06
2018-05-02T19:31:06.850Z,12.33
2018-05-02T19:37:07.624Z,13.22
2018-05-02T19:47:16.076Z,11.04
2018-05-02T19:47:16.250Z,11.74
2018-05-02T19:53:17.057Z,15.39
2018-05-02T19:57:17.996Z,12.6
2018-05-02T20:03:18.673Z,11.41
2018-05-02T20:07:19.676Z,11.6
2018-05-02T20:13:20.429Z,12.03
2018-05-02T20:19:21.252Z,12.38
2018-05-02T20:23:22.222Z,11.64
2018-05-02T20:29:31.410Z,13.02
2018-05-02T20:33:32.832Z,13.13
2018-05-02T20:43:36.436Z,15.66
2018-05-02T20:43:36.585Z,14.38
2018-05-02T20:45:37.283Z,13.63
2018-05-02T20:49:38.185Z,13.46
2018-05-02T20:55:38.880Z,15.41
2018-05-02T20:59:39.718Z,13.7
2018-05-02T21:05:40.416Z,17.66
2018-05-02T21:09:41.289Z,15.88
2018-05-02T21:11:42.036Z,16.62
2018-05-02T21:15:42.863Z,15.36
2018-05-02T21:21:43.635Z,17.76
2018-05-02T21:25:44.565Z,17.32
2018-05-02T21:31:45.414Z,19.69
2018-05-02T21:35:46.177Z,18.48
2018-05-02T21:37:46.909Z,18.54
2018-05-02T21:41:47.651Z,17.39
2018-05-02T21:47:48.460Z,18.17
2018-05-02T21:51:49.065Z,16.93
2018-05-02T21:57:49.842Z,17.29
2018-05-02T22:01:50.645Z,19.27
2018-05-02T22:03:51.320Z,17.93
2018-05-02T22:07:52.063Z,18.29
2018-05-02T22:13:52.788Z,20
2018-05-02T22:17:53.524Z,19.72
2018-05-02T22:23:54.202Z,20.47
2018-05-02T22:29:54.996Z,19.13
2018-05-02T22:33:55.680Z,18.51
2018-05-02T22:39:56.381Z,17.69
2018-05-02T22:43:57.219Z,17.31
2018-05-02T22:49:58.141Z,17.13
2018-05-02T22:55:58.953Z,17.51
2018-05-02T22:59:59.635Z,15.72
2018-05-02T23:06:00.324Z,16.82
2018-05-02T23:10:01.050Z,15.79
2018-05-02T23:16:01.734Z,16.56
2018-05-02T23:22:02.540Z,18.7
2018-05-02T23:26:03.211Z,16.85
2018-05-02T23:32:03.898Z,16.31
2018-05-02T23:36:04.598Z,15.69
2018-05-02T23:42:05.253Z,15.44
2018-05-02T23:48:05.966Z,16.41
2018-05-02T23:52:06.712Z,17.53
2018-05-02T23:58:07.485Z,15.79
